sensor_id;sensor_type;location;lat;lon;timestamp;P1;durP1;ratioP1;P2;durP2;ratioP2
46006;SDS011;31738;50.188;8.524;2023-04-01T00:00:33;6.93;;;1.92;;
46006;SDS011;31738;50.188;8.524;2023-04-01T00:02:59;8.23;;;2.10;;
46006;SDS011;31738;50.188;8.524;2023-04-01T00:05:25;7.95;;;2.00;;
46006;SDS011;31738;50.188;8.524;2023-04-01T00:07:51;10.27;;;2.33;;
46006;SDS011;31738;50.188;8.524;2023-04-01T00:10:17;9.23;;;2.35;;
46006;SDS011;31738;50.188;8.524;2023-04-01T00:12:43;9.65;;;2.03;;
46006;SDS011;31738;50.188;8.524;2023-04-01T00:15:09;8.32;;;2.22;;
46006;SDS011;31738;50.188;8.524;2023-04-01T00:17:36;10.93;;;2.25;;
46006;SDS011;31738;50.188;8.524;2023-04-01T00:20:03;10.93;;;2.50;;
46006;SDS011;31738;50.188;8.524;2023-04-01T00:22:29;10.52;;;2.50;;
46006;SDS011;31738;50.188;8.524;2023-04-01T00:24:55;10.20;;;2.10;;
46006;SDS011;31738;50.188;8.524;2023-04-01T00:27:20;6.38;;;2.00;;
46006;SDS011;31738;50.188;8.524;2023-04-01T00:29:46;10.20;;;1.92;;
46006;SDS011;31738;50.188;8.524;2023-04-01T00:32:13;6.47;;;2.40;;
46006;SDS011;31738;50.188;8.524;2023-04-01T00:34:39;7.97;;;2.15;;
46006;SDS011;31738;50.188;8.524;2023-04-01T00:37:06;9.88;;;2.05;;
46006;SDS011;31738;50.188;8.524;2023-04-01T00:39:33;15.30;;;2.42;;
46006;SDS011;31738;50.188;8.524;2023-04-01T00:42:11;7.45;;;2.20;;
46006;SDS011;31738;50.188;8.524;2023-04-01T00:44:37;7.43;;;1.95;;
46006;SDS011;31738;50.188;8.524;2023-04-01T00:47:04;9.73;;;1.92;;
46006;SDS011;31738;50.188;8.524;2023-04-01T00:49:30;6.72;;;2.30;;
46006;SDS011;31738;50.188;8.524;2023-04-01T00:52:03;8.45;;;2.13;;
46006;SDS011;31738;50.188;8.524;2023-04-01T00:54:30;9.65;;;2.10;;
46006;SDS011;31738;50.188;8.524;2023-04-01T00:56:58;5.85;;;1.88;;
46006;SDS011;31738;50.188;8.524;2023-04-01T00:59:53;12.40;;;2.00;;
46006;SDS011;31738;50.188;8.524;2023-04-01T01:02:20;9.93;;;2.53;;
46006;SDS011;31738;50.188;8.524;2023-04-01T01:04:45;10.60;;;2.30;;
46006;SDS011;31738;50.188;8.524;2023-04-01T01:07:30;5.03;;;1.83;;
46006;SDS011;31738;50.188;8.524;2023-04-01T01:12:46;9.68;;;2.00;;
46006;SDS011;31738;50.188;8.524;2023-04-01T01:15:25;5.55;;;1.70;;
46006;SDS011;31738;50.188;8.524;2023-04-01T01:23:39;10.48;;;1.67;;
46006;SDS011;31738;50.188;8.524;2023-04-01T01:26:39;9.70;;;1.92;;
46006;SDS011;31738;50.188;8.524;2023-04-01T01:29:48;11.57;;;2.08;;
46006;SDS011;31738;50.188;8.524;2023-04-01T01:32:35;9.93;;;1.88;;
46006;SDS011;31738;50.188;8.524;2023-04-01T01:37:47;8.68;;;1.88;;
46006;SDS011;31738;50.188;8.524;2023-04-01T01:40:19;9.52;;;1.80;;
46006;SDS011;31738;50.188;8.524;2023-04-01T01:42:48;4.95;;;1.52;;
46006;SDS011;31738;50.188;8.524;2023-04-01T01:45:19;8.32;;;1.77;;
46006;SDS011;31738;50.188;8.524;2023-04-01T01:47:46;5.53;;;1.50;;
46006;SDS011;31738;50.188;8.524;2023-04-01T01:50:14;8.95;;;1.80;;
46006;SDS011;31738;50.188;8.524;2023-04-01T01:52:40;7.50;;;1.70;;
46006;SDS011;31738;50.188;8.524;2023-04-01T01:55:23;7.20;;;1.63;;
46006;SDS011;31738;50.188;8.524;2023-04-01T01:58:11;6.65;;;1.73;;
46006;SDS011;31738;50.188;8.524;2023-04-01T02:00:41;6.45;;;1.50;;
46006;SDS011;31738;50.188;8.524;2023-04-01T02:03:12;7.07;;;1.70;;
46006;SDS011;31738;50.188;8.524;2023-04-01T02:05:40;7.43;;;1.67;;
46006;SDS011;31738;50.188;8.524;2023-04-01T02:08:10;6.78;;;1.88;;
46006;SDS011;31738;50.188;8.524;2023-04-01T02:10:41;7.68;;;1.95;;
46006;SDS011;31738;50.188;8.524;2023-04-01T02:13:18;6.75;;;2.10;;
46006;SDS011;31738;50.188;8.524;2023-04-01T02:15:50;7.50;;;1.70;;
46006;SDS011;31738;50.188;8.524;2023-04-01T02:18:22;8.60;;;1.77;;
46006;SDS011;31738;50.188;8.524;2023-04-01T02:20:47;8.27;;;1.52;;
46006;SDS011;31738;50.188;8.524;2023-04-01T02:23:14;6.18;;;1.48;;
46006;SDS011;31738;50.188;8.524;2023-04-01T02:25:41;9.75;;;1.58;;
46006;SDS011;31738;50.188;8.524;2023-04-01T02:28:08;6.88;;;1.50;;
46006;SDS011;31738;50.188;8.524;2023-04-01T02:30:35;3.47;;;1.40;;
46006;SDS011;31738;50.188;8.524;2023-04-01T02:33:05;10.23;;;1.85;;
46006;SDS011;31738;50.188;8.524;2023-04-01T02:35:32;5.95;;;1.45;;
46006;SDS011;31738;50.188;8.524;2023-04-01T02:38:00;5.15;;;1.20;;
46006;SDS011;31738;50.188;8.524;2023-04-01T02:40:26;8.32;;;1.48;;
46006;SDS011;31738;50.188;8.524;2023-04-01T02:42:58;4.35;;;1.50;;
46006;SDS011;31738;50.188;8.524;2023-04-01T02:45:23;7.47;;;1.27;;
46006;SDS011;31738;50.188;8.524;2023-04-01T02:47:49;6.10;;;1.27;;
46006;SDS011;31738;50.188;8.524;2023-04-01T02:50:15;9.65;;;1.60;;
46006;SDS011;31738;50.188;8.524;2023-04-01T02:52:40;5.65;;;1.30;;
46006;SDS011;31738;50.188;8.524;2023-04-01T02:55:06;5.53;;;1.63;;
46006;SDS011;31738;50.188;8.524;2023-04-01T02:57:32;6.10;;;1.83;;
46006;SDS011;31738;50.188;8.524;2023-04-01T02:59:57;7.38;;;1.25;;
46006;SDS011;31738;50.188;8.524;2023-04-01T03:02:23;8.07;;;1.70;;
46006;SDS011;31738;50.188;8.524;2023-04-01T03:04:48;6.47;;;1.52;;
46006;SDS011;31738;50.188;8.524;2023-04-01T03:07:13;7.10;;;1.23;;
46006;SDS011;31738;50.188;8.524;2023-04-01T03:09:39;4.47;;;1.30;;
46006;SDS011;31738;50.188;8.524;2023-04-01T03:12:05;8.05;;;1.60;;
46006;SDS011;31738;50.188;8.524;2023-04-01T03:14:37;5.28;;;1.00;;
46006;SDS011;31738;50.188;8.524;2023-04-01T03:17:02;6.57;;;1.70;;
46006;SDS011;31738;50.188;8.524;2023-04-01T03:19:27;7.47;;;1.70;;
46006;SDS011;31738;50.188;8.524;2023-04-01T03:21:53;8.23;;;1.30;;
46006;SDS011;31738;50.188;8.524;2023-04-01T03:24:19;5.22;;;1.50;;
46006;SDS011;31738;50.188;8.524;2023-04-01T03:26:46;13.90;;;1.65;;
46006;SDS011;31738;50.188;8.524;2023-04-01T03:29:12;7.07;;;1.20;;
46006;SDS011;31738;50.188;8.524;2023-04-01T03:31:37;8.00;;;1.40;;
46006;SDS011;31738;50.188;8.524;2023-04-01T03:34:03;6.80;;;1.58;;
46006;SDS011;31738;50.188;8.524;2023-04-01T03:36:28;8.98;;;1.88;;
46006;SDS011;31738;50.188;8.524;2023-04-01T03:38:54;5.13;;;1.60;;
46006;SDS011;31738;50.188;8.524;2023-04-01T03:41:30;6.60;;;1.60;;
46006;SDS011;31738;50.188;8.524;2023-04-01T03:43:56;7.07;;;1.70;;
46006;SDS011;31738;50.188;8.524;2023-04-01T03:46:21;4.90;;;1.60;;
46006;SDS011;31738;50.188;8.524;2023-04-01T03:48:48;6.32;;;1.60;;
46006;SDS011;31738;50.188;8.524;2023-04-01T03:51:13;8.73;;;1.52;;
46006;SDS011;31738;50.188;8.524;2023-04-01T03:53:39;8.88;;;1.55;;
46006;SDS011;31738;50.188;8.524;2023-04-01T03:56:05;7.63;;;1.67;;
46006;SDS011;31738;50.188;8.524;2023-04-01T03:58:34;5.80;;;1.58;;
46006;SDS011;31738;50.188;8.524;2023-04-01T04:01:02;8.70;;;1.70;;
46006;SDS011;31738;50.188;8.524;2023-04-01T04:03:28;7.53;;;1.83;;
46006;SDS011;31738;50.188;8.524;2023-04-01T04:05:53;10.70;;;1.52;;
46006;SDS011;31738;50.188;8.524;2023-04-01T04:08:20;7.45;;;1.67;;
46006;SDS011;31738;50.188;8.524;2023-04-01T04:10:47;7.28;;;1.73;;
46006;SDS011;31738;50.188;8.524;2023-04-01T04:13:13;8.60;;;1.73;;
46006;SDS011;31738;50.188;8.524;2023-04-01T04:15:46;7.65;;;1.80;;
46006;SDS011;31738;50.188;8.524;2023-04-01T04:18:11;10.73;;;1.85;;
46006;SDS011;31738;50.188;8.524;2023-04-01T04:20:43;8.15;;;1.90;;
46006;SDS011;31738;50.188;8.524;2023-04-01T04:23:11;11.77;;;2.05;;
46006;SDS011;31738;50.188;8.524;2023-04-01T04:25:36;7.18;;;1.90;;
46006;SDS011;31738;50.188;8.524;2023-04-01T04:28:02;7.93;;;2.17;;
46006;SDS011;31738;50.188;8.524;2023-04-01T04:30:27;7.97;;;2.10;;
46006;SDS011;31738;50.188;8.524;2023-04-01T04:32:53;9.73;;;2.05;;
46006;SDS011;31738;50.188;8.524;2023-04-01T04:35:18;7.35;;;2.08;;
46006;SDS011;31738;50.188;8.524;2023-04-01T04:37:44;9.18;;;1.95;;
46006;SDS011;31738;50.188;8.524;2023-04-01T04:40:10;8.13;;;1.95;;
46006;SDS011;31738;50.188;8.524;2023-04-01T04:42:36;9.68;;;1.60;;
46006;SDS011;31738;50.188;8.524;2023-04-01T04:45:07;6.30;;;1.73;;
46006;SDS011;31738;50.188;8.524;2023-04-01T04:47:35;10.27;;;1.80;;
46006;SDS011;31738;50.188;8.524;2023-04-01T04:50:00;7.85;;;1.70;;
46006;SDS011;31738;50.188;8.524;2023-04-01T04:52:26;7.47;;;1.50;;
46006;SDS011;31738;50.188;8.524;2023-04-01T04:54:51;7.13;;;1.80;;
46006;SDS011;31738;50.188;8.524;2023-04-01T04:57:17;9.45;;;1.83;;
46006;SDS011;31738;50.188;8.524;2023-04-01T04:59:50;6.55;;;2.00;;
46006;SDS011;31738;50.188;8.524;2023-04-01T05:02:23;6.28;;;1.80;;
46006;SDS011;31738;50.188;8.524;2023-04-01T05:04:49;7.68;;;1.85;;
46006;SDS011;31738;50.188;8.524;2023-04-01T05:07:14;6.95;;;1.95;;
46006;SDS011;31738;50.188;8.524;2023-04-01T05:09:40;6.50;;;2.00;;
46006;SDS011;31738;50.188;8.524;2023-04-01T05:12:05;5.95;;;2.40;;
46006;SDS011;31738;50.188;8.524;2023-04-01T05:15:06;7.40;;;2.03;;
46006;SDS011;31738;50.188;8.524;2023-04-01T05:17:33;10.30;;;2.40;;
46006;SDS011;31738;50.188;8.524;2023-04-01T05:19:59;8.15;;;2.40;;
46006;SDS011;31738;50.188;8.524;2023-04-01T05:22:25;8.52;;;2.00;;
46006;SDS011;31738;50.188;8.524;2023-04-01T05:24:51;9.15;;;2.00;;
46006;SDS011;31738;50.188;8.524;2023-04-01T05:27:17;5.85;;;1.63;;
46006;SDS011;31738;50.188;8.524;2023-04-01T05:29:43;9.35;;;2.35;;
46006;SDS011;31738;50.188;8.524;2023-04-01T05:32:24;7.65;;;2.03;;
46006;SDS011;31738;50.188;8.524;2023-04-01T05:34:50;7.50;;;1.75;;
46006;SDS011;31738;50.188;8.524;2023-04-01T05:37:16;7.85;;;1.65;;
46006;SDS011;31738;50.188;8.524;2023-04-01T05:39:42;6.03;;;1.60;;
46006;SDS011;31738;50.188;8.524;2023-04-01T05:42:07;6.97;;;2.00;;
46006;SDS011;31738;50.188;8.524;2023-04-01T05:44:34;5.72;;;1.67;;
46006;SDS011;31738;50.188;8.524;2023-04-01T05:47:05;7.95;;;1.52;;
46006;SDS011;31738;50.188;8.524;2023-04-01T05:49:32;11.68;;;2.03;;
46006;SDS011;31738;50.188;8.524;2023-04-01T05:51:59;8.15;;;1.77;;
46006;SDS011;31738;50.188;8.524;2023-04-01T05:54:25;9.40;;;1.45;;
46006;SDS011;31738;50.188;8.524;2023-04-01T05:56:50;3.65;;;1.30;;
46006;SDS011;31738;50.188;8.524;2023-04-01T05:59:17;11.55;;;1.80;;
46006;SDS011;31738;50.188;8.524;2023-04-01T06:01:43;6.53;;;1.58;;
46006;SDS011;31738;50.188;8.524;2023-04-01T06:04:15;8.38;;;1.55;;
46006;SDS011;31738;50.188;8.524;2023-04-01T06:06:42;8.13;;;1.70;;
46006;SDS011;31738;50.188;8.524;2023-04-01T06:09:12;5.95;;;1.55;;
46006;SDS011;31738;50.188;8.524;2023-04-01T06:12:53;7.55;;;1.85;;
46006;SDS011;31738;50.188;8.524;2023-04-01T06:20:40;4.05;;;1.50;;
46006;SDS011;31738;50.188;8.524;2023-04-01T06:29:06;6.95;;;1.80;;
46006;SDS011;31738;50.188;8.524;2023-04-01T06:31:49;5.35;;;1.60;;
46006;SDS011;31738;50.188;8.524;2023-04-01T06:40:23;4.03;;;1.30;;
46006;SDS011;31738;50.188;8.524;2023-04-01T06:46:02;7.30;;;1.63;;
46006;SDS011;31738;50.188;8.524;2023-04-01T06:49:06;5.97;;;1.40;;
46006;SDS011;31738;50.188;8.524;2023-04-01T06:58:20;6.72;;;1.17;;
46006;SDS011;31738;50.188;8.524;2023-04-01T07:00:50;3.42;;;1.20;;
46006;SDS011;31738;50.188;8.524;2023-04-01T07:06:12;5.95;;;1.23;;
46006;SDS011;31738;50.188;8.524;2023-04-01T07:08:51;8.20;;;1.45;;
46006;SDS011;31738;50.188;8.524;2023-04-01T07:11:24;4.75;;;1.30;;
46006;SDS011;31738;50.188;8.524;2023-04-01T07:14:21;2.90;;;1.10;;
46006;SDS011;31738;50.188;8.524;2023-04-01T07:19:45;4.63;;;1.17;;
46006;SDS011;31738;50.188;8.524;2023-04-01T07:22:20;8.13;;;1.35;;
46006;SDS011;31738;50.188;8.524;2023-04-01T07:25:02;6.57;;;1.50;;
46006;SDS011;31738;50.188;8.524;2023-04-01T07:27:30;4.63;;;1.27;;
46006;SDS011;31738;50.188;8.524;2023-04-01T07:29:56;3.80;;;1.30;;
46006;SDS011;31738;50.188;8.524;2023-04-01T07:48:41;4.13;;;1.27;;
46006;SDS011;31738;50.188;8.524;2023-04-01T07:51:17;3.05;;;1.33;;
46006;SDS011;31738;50.188;8.524;2023-04-01T07:56:15;5.65;;;1.42;;
46006;SDS011;31738;50.188;8.524;2023-04-01T07:58:56;2.65;;;1.27;;
46006;SDS011;31738;50.188;8.524;2023-04-01T08:01:53;3.65;;;1.33;;
46006;SDS011;31738;50.188;8.524;2023-04-01T08:10:44;2.72;;;1.10;;
46006;SDS011;31738;50.188;8.524;2023-04-01T08:17:54;4.13;;;1.20;;
46006;SDS011;31738;50.188;8.524;2023-04-01T08:22:45;4.55;;;1.15;;
46006;SDS011;31738;50.188;8.524;2023-04-01T08:25:24;1.75;;;1.02;;
46006;SDS011;31738;50.188;8.524;2023-04-01T08:30:58;5.38;;;1.10;;
46006;SDS011;31738;50.188;8.524;2023-04-01T08:33:30;4.32;;;1.10;;
46006;SDS011;31738;50.188;8.524;2023-04-01T08:36:05;5.07;;;1.13;;
46006;SDS011;31738;50.188;8.524;2023-04-01T08:58:32;1.67;;;0.80;;
46006;SDS011;31738;50.188;8.524;2023-04-01T09:01:42;1.40;;;0.60;;
46006;SDS011;31738;50.188;8.524;2023-04-01T09:07:51;0.35;;;0.35;;
46006;SDS011;31738;50.188;8.524;2023-04-01T09:10:35;1.38;;;0.50;;
46006;SDS011;31738;50.188;8.524;2023-04-01T09:13:57;2.30;;;0.68;;
46006;SDS011;31738;50.188;8.524;2023-04-01T09:27:44;1.02;;;0.60;;
46006;SDS011;31738;50.188;8.524;2023-04-01T09:33:33;2.15;;;0.90;;
46006;SDS011;31738;50.188;8.524;2023-04-01T09:36:43;3.60;;;1.65;;
46006;SDS011;31738;50.188;8.524;2023-04-01T09:47:50;4.65;;;0.90;;
46006;SDS011;31738;50.188;8.524;2023-04-01T09:50:31;0.68;;;0.50;;
46006;SDS011;31738;50.188;8.524;2023-04-01T09:56:08;1.52;;;0.70;;
46006;SDS011;31738;50.188;8.524;2023-04-01T10:04:55;2.63;;;0.75;;
46006;SDS011;31738;50.188;8.524;2023-04-01T10:14:23;1.35;;;0.63;;
46006;SDS011;31738;50.188;8.524;2023-04-01T10:16:26;0.93;;;0.77;;
46006;SDS011;31738;50.188;8.524;2023-04-01T10:19:20;1.75;;;0.70;;
46006;SDS011;31738;50.188;8.524;2023-04-01T10:28:02;2.08;;;0.75;;
46006;SDS011;31738;50.188;8.524;2023-04-01T10:34:14;1.63;;;0.70;;
46006;SDS011;31738;50.188;8.524;2023-04-01T10:36:50;1.75;;;0.90;;
46006;SDS011;31738;50.188;8.524;2023-04-01T10:51:09;1.33;;;0.70;;
46006;SDS011;31738;50.188;8.524;2023-04-01T11:00:53;0.73;;;0.50;;
46006;SDS011;31738;50.188;8.524;2023-04-01T11:03:46;3.53;;;1.00;;
46006;SDS011;31738;50.188;8.524;2023-04-01T11:18:39;1.90;;;0.77;;
46006;SDS011;31738;50.188;8.524;2023-04-01T11:56:45;1.67;;;0.98;;
46006;SDS011;31738;50.188;8.524;2023-04-01T11:59:39;2.97;;;1.00;;
46006;SDS011;31738;50.188;8.524;2023-04-01T12:28:21;1.00;;;0.70;;
46006;SDS011;31738;50.188;8.524;2023-04-01T12:31:12;1.20;;;0.70;;
46006;SDS011;31738;50.188;8.524;2023-04-01T12:33:52;1.48;;;0.80;;
46006;SDS011;31738;50.188;8.524;2023-04-01T12:44:33;2.87;;;0.80;;
46006;SDS011;31738;50.188;8.524;2023-04-01T13:09:23;1.73;;;0.60;;
46006;SDS011;31738;50.188;8.524;2023-04-01T13:18:09;1.50;;;0.70;;
46006;SDS011;31738;50.188;8.524;2023-04-01T13:26:21;2.33;;;0.55;;
46006;SDS011;31738;50.188;8.524;2023-04-01T13:28:59;1.60;;;0.90;;
46006;SDS011;31738;50.188;8.524;2023-04-01T13:43:24;1.17;;;0.57;;
46006;SDS011;31738;50.188;8.524;2023-04-01T13:46:05;0.88;;;0.60;;
46006;SDS011;31738;50.188;8.524;2023-04-01T14:19:30;2.72;;;0.80;;
46006;SDS011;31738;50.188;8.524;2023-04-01T14:25:20;1.35;;;0.55;;
46006;SDS011;31738;50.188;8.524;2023-04-01T14:31:04;1.35;;;0.80;;
46006;SDS011;31738;50.188;8.524;2023-04-01T14:36:58;1.60;;;0.60;;
46006;SDS011;31738;50.188;8.524;2023-04-01T14:50:58;1.50;;;0.80;;
46006;SDS011;31738;50.188;8.524;2023-04-01T14:53:34;1.95;;;0.70;;
46006;SDS011;31738;50.188;8.524;2023-04-01T14:56:04;0.75;;;0.65;;
46006;SDS011;31738;50.188;8.524;2023-04-01T14:58:46;1.92;;;0.60;;
46006;SDS011;31738;50.188;8.524;2023-04-01T15:09:41;1.60;;;0.80;;
46006;SDS011;31738;50.188;8.524;2023-04-01T15:12:40;2.85;;;1.20;;
46006;SDS011;31738;50.188;8.524;2023-04-01T15:21:06;1.33;;;0.70;;
46006;SDS011;31738;50.188;8.524;2023-04-01T15:43:36;0.82;;;0.65;;
46006;SDS011;31738;50.188;8.524;2023-04-01T15:57:27;1.05;;;0.70;;
46006;SDS011;31738;50.188;8.524;2023-04-01T16:02:51;0.90;;;0.65;;
46006;SDS011;31738;50.188;8.524;2023-04-01T16:05:36;0.80;;;0.60;;
46006;SDS011;31738;50.188;8.524;2023-04-01T16:08:35;0.68;;;0.52;;
46006;SDS011;31738;50.188;8.524;2023-04-01T16:19:23;1.23;;;0.50;;
46006;SDS011;31738;50.188;8.524;2023-04-01T16:24:45;0.95;;;0.60;;
46006;SDS011;31738;50.188;8.524;2023-04-01T16:29:55;0.63;;;0.55;;
46006;SDS011;31738;50.188;8.524;2023-04-01T16:32:34;0.95;;;0.70;;
46006;SDS011;31738;50.188;8.524;2023-04-01T16:38:00;2.80;;;0.70;;
46006;SDS011;31738;50.188;8.524;2023-04-01T16:40:42;0.70;;;0.60;;
46006;SDS011;31738;50.188;8.524;2023-04-01T16:49:03;0.97;;;0.70;;
46006;SDS011;31738;50.188;8.524;2023-04-01T16:54:16;1.65;;;0.70;;
46006;SDS011;31738;50.188;8.524;2023-04-01T16:59:47;1.65;;;0.80;;
46006;SDS011;31738;50.188;8.524;2023-04-01T17:02:22;0.75;;;0.63;;
46006;SDS011;31738;50.188;8.524;2023-04-01T17:15:42;2.63;;;1.00;;
46006;SDS011;31738;50.188;8.524;2023-04-01T17:18:26;1.30;;;0.70;;
46006;SDS011;31738;50.188;8.524;2023-04-01T17:21:10;1.85;;;0.68;;
46006;SDS011;31738;50.188;8.524;2023-04-01T17:24:00;0.95;;;0.50;;
46006;SDS011;31738;50.188;8.524;2023-04-01T17:26:51;1.83;;;0.95;;
46006;SDS011;31738;50.188;8.524;2023-04-01T17:32:35;2.83;;;0.80;;
46006;SDS011;31738;50.188;8.524;2023-04-01T17:35:43;0.98;;;0.73;;
46006;SDS011;31738;50.188;8.524;2023-04-01T17:41:25;1.88;;;0.52;;
46006;SDS011;31738;50.188;8.524;2023-04-01T17:44:10;0.80;;;0.60;;
46006;SDS011;31738;50.188;8.524;2023-04-01T17:49:35;1.75;;;0.50;;
46006;SDS011;31738;50.188;8.524;2023-04-01T17:52:25;1.23;;;0.70;;
46006;SDS011;31738;50.188;8.524;2023-04-01T17:57:30;1.52;;;0.60;;
46006;SDS011;31738;50.188;8.524;2023-04-01T18:00:23;0.68;;;0.60;;
46006;SDS011;31738;50.188;8.524;2023-04-01T18:11:49;2.95;;;0.95;;
46006;SDS011;31738;50.188;8.524;2023-04-01T18:14:23;2.40;;;0.80;;
46006;SDS011;31738;50.188;8.524;2023-04-01T18:23:03;2.90;;;1.30;;
46006;SDS011;31738;50.188;8.524;2023-04-01T18:25:51;1.35;;;0.75;;
46006;SDS011;31738;50.188;8.524;2023-04-01T18:28:36;0.93;;;0.70;;
46006;SDS011;31738;50.188;8.524;2023-04-01T18:31:19;1.00;;;0.80;;
46006;SDS011;31738;50.188;8.524;2023-04-01T18:37:08;1.27;;;1.05;;
46006;SDS011;31738;50.188;8.524;2023-04-01T18:40:32;1.85;;;1.00;;
46006;SDS011;31738;50.188;8.524;2023-04-01T18:49:55;2.00;;;1.10;;
46006;SDS011;31738;50.188;8.524;2023-04-01T19:00:22;1.30;;;0.90;;
46006;SDS011;31738;50.188;8.524;2023-04-01T19:05:41;1.52;;;1.00;;
46006;SDS011;31738;50.188;8.524;2023-04-01T19:11:50;3.30;;;1.77;;
46006;SDS011;31738;50.188;8.524;2023-04-01T19:16:45;2.45;;;1.30;;
46006;SDS011;31738;50.188;8.524;2023-04-01T19:21:42;2.05;;;1.45;;
46006;SDS011;31738;50.188;8.524;2023-04-01T19:29:51;7.65;;;3.20;;
46006;SDS011;31738;50.188;8.524;2023-04-01T19:38:26;4.10;;;2.17;;
46006;SDS011;31738;50.188;8.524;2023-04-01T19:41:08;4.53;;;2.08;;
46006;SDS011;31738;50.188;8.524;2023-04-01T19:46:32;3.55;;;2.60;;
46006;SDS011;31738;50.188;8.524;2023-04-01T19:49:23;3.97;;;2.10;;
46006;SDS011;31738;50.188;8.524;2023-04-01T19:57:15;5.75;;;2.10;;
46006;SDS011;31738;50.188;8.524;2023-04-01T20:02:29;6.28;;;2.95;;
46006;SDS011;31738;50.188;8.524;2023-04-01T20:05:03;3.83;;;3.23;;
46006;SDS011;31738;50.188;8.524;2023-04-01T20:07:47;4.30;;;3.10;;
46006;SDS011;31738;50.188;8.524;2023-04-01T20:13:26;3.50;;;2.17;;
46006;SDS011;31738;50.188;8.524;2023-04-01T20:15:59;5.28;;;2.47;;
46006;SDS011;31738;50.188;8.524;2023-04-01T20:18:39;4.03;;;2.75;;
46006;SDS011;31738;50.188;8.524;2023-04-01T20:21:30;7.00;;;2.80;;
46006;SDS011;31738;50.188;8.524;2023-04-01T20:24:02;4.63;;;3.35;;
46006;SDS011;31738;50.188;8.524;2023-04-01T20:26:42;6.65;;;3.30;;
46006;SDS011;31738;50.188;8.524;2023-04-01T20:29:18;6.63;;;3.17;;
46006;SDS011;31738;50.188;8.524;2023-04-01T20:34:59;6.07;;;3.97;;
46006;SDS011;31738;50.188;8.524;2023-04-01T20:37:41;6.60;;;3.90;;
46006;SDS011;31738;50.188;8.524;2023-04-01T20:40:30;6.13;;;4.50;;
46006;SDS011;31738;50.188;8.524;2023-04-01T20:52:08;5.78;;;4.30;;
46006;SDS011;31738;50.188;8.524;2023-04-01T21:06:21;7.65;;;4.53;;
46006;SDS011;31738;50.188;8.524;2023-04-01T21:08:59;8.40;;;4.60;;
46006;SDS011;31738;50.188;8.524;2023-04-01T21:11:53;7.05;;;4.57;;
46006;SDS011;31738;50.188;8.524;2023-04-01T21:19:51;8.50;;;4.60;;
46006;SDS011;31738;50.188;8.524;2023-04-01T21:22:33;7.00;;;4.57;;
46006;SDS011;31738;50.188;8.524;2023-04-01T21:36:34;6.78;;;4.53;;
46006;SDS011;31738;50.188;8.524;2023-04-01T21:39:08;8.20;;;4.60;;
46006;SDS011;31738;50.188;8.524;2023-04-01T21:44:46;8.40;;;5.65;;
46006;SDS011;31738;50.188;8.524;2023-04-01T21:50:14;6.97;;;5.15;;
46006;SDS011;31738;50.188;8.524;2023-04-01T21:53:07;8.30;;;5.75;;
46006;SDS011;31738;50.188;8.524;2023-04-01T22:06:38;10.63;;;5.55;;
46006;SDS011;31738;50.188;8.524;2023-04-01T22:09:25;8.52;;;5.43;;
46006;SDS011;31738;50.188;8.524;2023-04-01T22:12:09;8.85;;;5.75;;
46006;SDS011;31738;50.188;8.524;2023-04-01T22:23:12;9.50;;;5.95;;
46006;SDS011;31738;50.188;8.524;2023-04-01T22:25:59;8.43;;;6.05;;
46006;SDS011;31738;50.188;8.524;2023-04-01T22:28:37;11.05;;;7.25;;
46006;SDS011;31738;50.188;8.524;2023-04-01T22:31:12;9.45;;;6.95;;
46006;SDS011;31738;50.188;8.524;2023-04-01T22:36:23;10.65;;;7.60;;
46006;SDS011;31738;50.188;8.524;2023-04-01T22:39:08;10.90;;;7.90;;
46006;SDS011;31738;50.188;8.524;2023-04-01T22:49:57;11.30;;;8.55;;
46006;SDS011;31738;50.188;8.524;2023-04-01T22:52:35;13.07;;;8.32;;
46006;SDS011;31738;50.188;8.524;2023-04-01T22:55:10;14.48;;;8.43;;
46006;SDS011;31738;50.188;8.524;2023-04-01T23:00:34;14.48;;;9.98;;
46006;SDS011;31738;50.188;8.524;2023-04-01T23:06:08;13.93;;;8.85;;
46006;SDS011;31738;50.188;8.524;2023-04-01T23:09:05;12.88;;;8.50;;
46006;SDS011;31738;50.188;8.524;2023-04-01T23:17:09;12.95;;;9.38;;
46006;SDS011;31738;50.188;8.524;2023-04-01T23:22:35;14.77;;;9.57;;
46006;SDS011;31738;50.188;8.524;2023-04-01T23:27:55;14.00;;;9.55;;
46006;SDS011;31738;50.188;8.524;2023-04-01T23:33:38;17.15;;;10.30;;
46006;SDS011;31738;50.188;8.524;2023-04-01T23:36:13;18.30;;;11.35;;
46006;SDS011;31738;50.188;8.524;2023-04-01T23:38:41;14.57;;;9.30;;
46006;SDS011;31738;50.188;8.524;2023-04-01T23:43:54;12.70;;;8.15;;
46006;SDS011;31738;50.188;8.524;2023-04-01T23:46:33;10.40;;;7.03;;
46006;SDS011;31738;50.188;8.524;2023-04-01T23:49:00;9.82;;;7.30;;
46006;SDS011;31738;50.188;8.524;2023-04-01T23:51:38;14.48;;;8.00;;
46006;SDS011;31738;50.188;8.524;2023-04-01T23:54:23;14.50;;;7.22;;
46006;SDS011;31738;50.188;8.524;2023-04-01T23:56:51;10.88;;;7.35;;
46006;SDS011;31738;50.188;8.524;2023-04-01T23:59:32;10.63;;;7.13;;
